createdAt,value
2023-02-06T00:01:37.963Z,8.00
2023-02-06T00:04:05.433Z,7.90
2023-02-06T00:06:32.856Z,7.80
2023-02-06T00:09:00.527Z,7.80
2023-02-06T00:11:27.933Z,7.80
2023-02-06T00:13:55.263Z,7.80
2023-02-06T00:16:30.496Z,7.80
2023-02-06T00:18:59.340Z,7.70
2023-02-06T00:21:27.921Z,7.70
2023-02-06T00:23:59.240Z,7.70
2023-02-06T00:26:27.003Z,7.60
2023-02-06T00:28:54.615Z,7.60
2023-02-06T00:31:22.217Z,7.60
2023-02-06T00:33:49.717Z,7.60
2023-02-06T00:36:17.732Z,7.60
2023-02-06T00:38:45.152Z,7.60
2023-02-06T00:41:12.492Z,7.60
2023-02-06T00:43:40.966Z,7.70
2023-02-06T00:46:08.361Z,7.70
2023-02-06T00:48:36.044Z,7.70
2023-02-06T00:51:06.213Z,7.70
2023-02-06T00:53:36.349Z,7.70
2023-02-06T00:56:06.859Z,7.70
2023-02-06T00:58:41.448Z,7.70
2023-02-06T01:01:11.610Z,7.70
2023-02-06T01:03:43.652Z,7.70
2023-02-06T01:06:10.926Z,7.60
2023-02-06T01:08:38.230Z,7.70
2023-02-06T01:11:19.739Z,7.70
2023-02-06T01:13:47.336Z,7.70
2023-02-06T01:16:19.262Z,7.70
2023-02-06T01:18:46.756Z,7.70
2023-02-06T01:21:20.704Z,7.70
2023-02-06T01:23:50.494Z,7.70
2023-02-06T01:26:20.765Z,7.60
2023-02-06T01:28:49.098Z,7.60
2023-02-06T01:31:25.247Z,7.60
2023-02-06T01:33:53.092Z,7.60
2023-02-06T01:36:21.177Z,7.60
2023-02-06T01:38:49.190Z,7.60
2023-02-06T01:41:18.995Z,7.70
2023-02-06T01:44:10.710Z,7.70
2023-02-06T01:46:46.476Z,7.70
2023-02-06T01:49:28.242Z,7.70
2023-02-06T01:52:23.580Z,7.70
2023-02-06T01:54:59.436Z,7.70
2023-02-06T01:57:27.902Z,7.70
2023-02-06T02:00:02.053Z,7.70
2023-02-06T02:02:43.847Z,7.70
2023-02-06T02:05:12.788Z,7.70
2023-02-06T02:08:02.309Z,7.70
2023-02-06T02:10:30.996Z,7.70
2023-02-06T02:12:58.820Z,7.70
2023-02-06T02:15:39.625Z,7.70
2023-02-06T02:18:39.969Z,7.70
2023-02-06T02:21:27.355Z,7.60
2023-02-06T02:24:02.924Z,7.60
2023-02-06T02:26:45.249Z,7.60
2023-02-06T02:29:47.270Z,7.60
2023-02-06T02:32:53.258Z,7.50
2023-02-06T02:35:48.291Z,7.50
2023-02-06T02:41:43.237Z,7.50
2023-02-06T02:44:14.425Z,7.50
2023-02-06T02:46:44.910Z,7.50
2023-02-06T02:49:20.654Z,7.40
2023-02-06T02:51:50.708Z,7.40
2023-02-06T02:54:18.905Z,7.40
2023-02-06T02:56:47.248Z,7.40
2023-02-06T02:59:24.172Z,7.40
2023-02-06T03:02:04.173Z,7.30
2023-02-06T03:04:53.827Z,7.30
2023-02-06T03:07:43.147Z,7.30
2023-02-06T03:10:34.047Z,7.20
2023-02-06T03:13:17.718Z,7.20
2023-02-06T03:16:14.345Z,7.10
2023-02-06T03:19:15.364Z,7.10
2023-02-06T03:21:48.256Z,7.10
2023-02-06T03:24:19.537Z,7.00
2023-02-06T03:26:50.918Z,7.00
2023-02-06T03:29:19.213Z,7.00
2023-02-06T03:31:54.070Z,7.00
2023-02-06T03:34:34.007Z,7.00
2023-02-06T03:37:01.775Z,7.00
2023-02-06T03:39:30.531Z,7.10
2023-02-06T03:42:00.174Z,7.00
2023-02-06T03:44:33.775Z,7.00
2023-02-06T03:47:03.365Z,7.00
2023-02-06T03:49:33.156Z,6.90
2023-02-06T03:52:03.509Z,7.00
2023-02-06T03:54:32.499Z,7.00
2023-02-06T03:57:05.923Z,7.00
2023-02-06T03:59:33.372Z,7.00
2023-02-06T04:02:03.209Z,7.00
2023-02-06T04:04:35.580Z,7.10
2023-02-06T04:07:13.074Z,7.10
2023-02-06T04:09:41.157Z,7.10
2023-02-06T04:12:08.697Z,7.10
2023-02-06T04:14:37.020Z,7.10
2023-02-06T04:17:05.206Z,7.10
2023-02-06T04:19:33.419Z,7.10
2023-02-06T04:22:01.354Z,7.10
2023-02-06T04:24:30.889Z,7.10
2023-02-06T04:26:58.694Z,7.10
2023-02-06T04:29:26.139Z,7.10
2023-02-06T04:31:53.443Z,7.10
2023-02-06T04:34:20.837Z,7.10
2023-02-06T04:36:48.255Z,7.10
2023-02-06T04:39:15.529Z,7.10
2023-02-06T04:41:42.823Z,7.10
2023-02-06T04:44:10.488Z,7.10
2023-02-06T04:46:37.841Z,7.20
2023-02-06T04:49:05.146Z,7.20
2023-02-06T04:51:32.448Z,7.20
2023-02-06T04:53:59.746Z,7.20
2023-02-06T04:56:27.033Z,7.20
2023-02-06T04:58:54.409Z,7.20
2023-02-06T05:01:22.147Z,7.30
2023-02-06T05:03:49.596Z,7.30
2023-02-06T05:06:17.503Z,7.30
2023-02-06T05:08:44.968Z,7.40
2023-02-06T05:11:12.893Z,7.40
2023-02-06T05:13:40.326Z,7.40
2023-02-06T05:16:13.475Z,7.40
2023-02-06T05:18:41.197Z,7.50
2023-02-06T05:21:08.809Z,7.50
2023-02-06T05:23:36.086Z,7.50
2023-02-06T05:26:03.481Z,7.50
2023-02-06T05:28:33.561Z,7.60
2023-02-06T05:31:02.225Z,7.60
2023-02-06T05:33:30.157Z,7.60
2023-02-06T05:36:05.219Z,7.60
2023-02-06T05:38:33.204Z,7.60
2023-02-06T05:41:00.885Z,7.60
2023-02-06T05:43:28.146Z,7.70
2023-02-06T05:45:55.405Z,7.70
2023-02-06T05:48:22.887Z,7.70
2023-02-06T05:50:50.654Z,7.70
2023-02-06T05:53:18.517Z,7.80
2023-02-06T05:55:45.944Z,7.80
2023-02-06T05:58:13.334Z,7.80
2023-02-06T06:00:40.723Z,7.80
2023-02-06T06:03:08.077Z,7.80
2023-02-06T06:05:35.761Z,7.80
2023-02-06T06:08:03.444Z,7.80
2023-02-06T06:10:30.813Z,7.80
2023-02-06T06:12:58.212Z,7.80
2023-02-06T06:15:25.582Z,7.80
2023-02-06T06:17:52.905Z,7.70
2023-02-06T06:20:20.425Z,7.70
2023-02-06T06:22:47.714Z,7.70
2023-02-06T06:25:15.182Z,7.70
2023-02-06T06:27:42.596Z,7.60
2023-02-06T06:30:10.772Z,7.60
2023-02-06T06:32:38.080Z,7.60
2023-02-06T06:35:05.727Z,7.60
2023-02-06T06:37:33.004Z,7.50
2023-02-06T06:40:00.452Z,7.50
2023-02-06T06:42:27.788Z,7.50
2023-02-06T06:44:55.055Z,7.50
2023-02-06T06:47:22.352Z,7.40
2023-02-06T06:49:49.612Z,7.40
2023-02-06T06:52:24.806Z,7.40
2023-02-06T06:54:53.534Z,7.40
2023-02-06T06:57:22.330Z,7.30
2023-02-06T06:59:50.448Z,7.30
2023-02-06T07:02:18.311Z,7.30
2023-02-06T07:04:47.436Z,7.30
2023-02-06T07:07:14.771Z,7.30
2023-02-06T07:09:42.200Z,7.30
2023-02-06T07:12:09.474Z,7.30
2023-02-06T07:14:36.805Z,7.30
2023-02-06T07:17:04.069Z,7.30
2023-02-06T07:19:31.444Z,7.30
2023-02-06T07:21:58.674Z,7.30
2023-02-06T07:24:26.034Z,7.30
2023-02-06T07:26:53.298Z,7.30
2023-02-06T07:29:20.833Z,7.30
2023-02-06T07:31:48.129Z,7.30
2023-02-06T07:34:16.918Z,7.30
2023-02-06T07:36:44.207Z,7.40
2023-02-06T07:39:11.617Z,7.40
2023-02-06T07:41:38.951Z,7.40
2023-02-06T07:44:06.580Z,7.40
2023-02-06T07:46:34.807Z,7.40
2023-02-06T07:49:02.117Z,7.50
2023-02-06T07:51:29.850Z,7.40
2023-02-06T07:53:57.102Z,7.50
2023-02-06T07:56:25.385Z,7.50
2023-02-06T07:58:54.899Z,7.50
2023-02-06T08:01:23.561Z,7.50
2023-02-06T08:03:54.637Z,7.60
2023-02-06T08:06:24.520Z,7.60
2023-02-06T08:08:54.122Z,7.60
2023-02-06T08:11:23.902Z,7.70
2023-02-06T08:13:51.540Z,7.80
2023-02-06T08:16:20.955Z,7.80
2023-02-06T08:18:49.096Z,7.90
2023-02-06T08:21:21.646Z,7.90
2023-02-06T08:23:55.376Z,8.00
2023-02-06T08:26:23.535Z,8.00
2023-02-06T08:28:52.094Z,8.10
2023-02-06T08:31:31.221Z,8.10
2023-02-06T08:33:59.118Z,8.20
2023-02-06T08:36:36.722Z,8.20
2023-02-06T08:39:30.511Z,8.20
2023-02-06T08:41:57.851Z,8.30
2023-02-06T08:44:25.061Z,8.40
2023-02-06T08:47:08.933Z,8.40
2023-02-06T08:49:37.377Z,8.50
2023-02-06T08:52:04.802Z,8.60
2023-02-06T08:54:40.857Z,8.60
2023-02-06T08:57:13.481Z,8.70
2023-02-06T08:59:41.745Z,8.80
2023-02-06T09:02:15.203Z,8.80
2023-02-06T09:04:43.569Z,8.90
2023-02-06T09:07:10.840Z,8.90
2023-02-06T09:09:41.154Z,9.00
2023-02-06T09:12:11.265Z,9.10
2023-02-06T09:14:41.364Z,9.10
2023-02-06T09:17:08.742Z,9.20
2023-02-06T09:19:36.110Z,9.20
2023-02-06T09:22:03.330Z,9.20
2023-02-06T09:24:32.409Z,9.30
2023-02-06T09:27:00.898Z,9.40
2023-02-06T09:29:29.654Z,9.40
2023-02-06T09:31:57.670Z,9.50
2023-02-06T09:34:26.273Z,9.50
2023-02-06T09:36:54.805Z,9.60
2023-02-06T09:39:22.573Z,9.60
2023-02-06T09:42:08.223Z,9.70
2023-02-06T09:45:03.086Z,9.70
2023-02-06T09:47:47.095Z,9.80
2023-02-06T09:50:27.781Z,9.80
2023-02-06T09:52:58.107Z,9.90
2023-02-06T09:55:37.936Z,9.90
2023-02-06T09:58:28.425Z,10.00
2023-02-06T10:01:13.896Z,10.10
2023-02-06T10:04:40.595Z,10.20
2023-02-06T10:07:47.794Z,10.30
2023-02-06T10:10:24.769Z,10.30
2023-02-06T10:13:31.558Z,10.40
2023-02-06T10:16:11.896Z,10.50
2023-02-06T10:18:50.630Z,10.50
2023-02-06T10:21:37.362Z,10.60
2023-02-06T10:24:19.829Z,10.60
2023-02-06T10:26:52.968Z,10.60
2023-02-06T10:29:27.546Z,10.60
2023-02-06T10:32:06.804Z,10.60
2023-02-06T10:35:04.892Z,10.60
2023-02-06T10:37:52.109Z,10.70
2023-02-06T10:40:53.092Z,10.70
2023-02-06T10:43:38.772Z,10.70
2023-02-06T10:46:26.032Z,10.70
2023-02-06T10:49:06.783Z,10.80
2023-02-06T10:51:38.420Z,10.80
2023-02-06T10:54:33.842Z,10.90
2023-02-06T10:57:02.265Z,11.00
2023-02-06T10:59:37.968Z,11.00
2023-02-06T11:02:14.754Z,11.00
2023-02-06T11:05:05.520Z,11.10
2023-02-06T11:07:53.095Z,11.10
2023-02-06T11:10:23.144Z,11.10
2023-02-06T11:13:05.378Z,11.20
2023-02-06T11:15:39.782Z,11.20
2023-02-06T11:18:11.521Z,11.20
2023-02-06T11:20:42.310Z,11.20
2023-02-06T11:23:24.449Z,11.30
2023-02-06T11:26:20.001Z,11.30
2023-02-06T11:28:56.789Z,11.30
2023-02-06T11:31:46.293Z,11.40
2023-02-06T11:34:32.238Z,11.40
2023-02-06T11:37:06.259Z,11.40
2023-02-06T11:39:36.228Z,11.40
2023-02-06T11:42:21.887Z,11.50
2023-02-06T11:44:49.796Z,11.50
2023-02-06T11:47:38.225Z,11.50
2023-02-06T11:50:15.379Z,11.50
2023-02-06T11:52:47.006Z,11.50
2023-02-06T11:55:29.498Z,11.50
2023-02-06T11:58:12.356Z,11.50
2023-02-06T12:00:40.629Z,11.60
2023-02-06T12:03:51.739Z,11.60
2023-02-06T12:06:35.331Z,11.50
2023-02-06T12:09:09.331Z,11.60
2023-02-06T12:11:48.796Z,11.60
2023-02-06T12:14:37.824Z,11.60
2023-02-06T12:17:17.278Z,11.70
2023-02-06T12:19:51.194Z,11.70
2023-02-06T12:22:24.290Z,11.80
2023-02-06T12:24:56.830Z,11.80
2023-02-06T12:27:39.431Z,11.90
2023-02-06T12:30:07.230Z,11.90
2023-02-06T12:32:45.801Z,11.90
2023-02-06T12:35:18.784Z,11.90
2023-02-06T12:37:57.438Z,11.90
2023-02-06T12:40:55.918Z,11.90
2023-02-06T12:43:23.366Z,11.90
2023-02-06T12:46:04.601Z,11.90
2023-02-06T12:48:46.062Z,11.90
2023-02-06T12:51:30.452Z,11.90
2023-02-06T12:54:14.880Z,11.90
2023-02-06T12:56:49.014Z,11.90
2023-02-06T12:59:52.271Z,11.90
2023-02-06T13:02:54.997Z,11.90
2023-02-06T13:05:37.451Z,11.90
2023-02-06T13:08:36.125Z,11.90
2023-02-06T13:11:21.781Z,11.90
2023-02-06T13:13:52.867Z,11.90
2023-02-06T13:16:20.200Z,11.90
2023-02-06T13:18:52.749Z,11.80
2023-02-06T13:21:36.959Z,11.80
2023-02-06T13:24:04.226Z,11.70
2023-02-06T13:26:46.538Z,11.70
2023-02-06T13:29:23.038Z,11.60
2023-02-06T13:31:50.368Z,11.60
2023-02-06T13:34:18.894Z,11.60
2023-02-06T13:36:51.836Z,11.60
2023-02-06T13:39:32.504Z,11.60
2023-02-06T13:42:22.378Z,11.60
2023-02-06T13:44:50.943Z,11.60
2023-02-06T13:47:36.741Z,11.60
2023-02-06T13:50:40.876Z,11.60
2023-02-06T13:53:32.444Z,11.60
2023-02-06T13:56:24.522Z,11.60
2023-02-06T13:58:54.286Z,11.60
2023-02-06T14:01:28.527Z,11.60
2023-02-06T14:03:56.476Z,11.60
2023-02-06T14:06:39.935Z,11.60
2023-02-06T14:09:10.377Z,11.60
2023-02-06T14:12:05.525Z,11.60
2023-02-06T14:14:43.902Z,11.60
2023-02-06T14:17:37.525Z,11.70
2023-02-06T14:20:26.556Z,11.70
2023-02-06T14:22:56.605Z,11.80
2023-02-06T14:26:19.433Z,11.80
2023-02-06T14:29:07.781Z,11.80
2023-02-06T14:31:38.581Z,11.90
2023-02-06T14:34:26.879Z,11.90
2023-02-06T14:37:28.143Z,11.90
2023-02-06T14:39:57.129Z,11.90
2023-02-06T14:42:49.532Z,11.90
2023-02-06T14:45:42.369Z,11.90
2023-02-06T14:48:28.966Z,11.80
2023-02-06T14:50:58.073Z,11.80
2023-02-06T14:53:38.606Z,11.80
2023-02-06T14:56:12.506Z,11.70
2023-02-06T14:58:39.905Z,11.70
2023-02-06T15:01:13.361Z,11.70
2023-02-06T15:03:42.001Z,11.70
2023-02-06T15:06:12.995Z,11.60
2023-02-06T15:08:51.396Z,11.70
2023-02-06T15:11:32.808Z,11.60
2023-02-06T15:14:06.410Z,11.60
2023-02-06T15:16:46.913Z,11.60
2023-02-06T15:19:20.831Z,11.60
2023-02-06T15:21:49.455Z,11.70
2023-02-06T15:24:41.542Z,11.70
2023-02-06T15:27:21.064Z,11.70
2023-02-06T15:29:52.191Z,11.70
2023-02-06T15:32:39.942Z,11.70
2023-02-06T15:35:25.526Z,11.70
2023-02-06T15:37:54.606Z,11.70
2023-02-06T15:40:31.056Z,11.60
2023-02-06T15:43:00.076Z,11.60
2023-02-06T15:45:36.977Z,11.50
2023-02-06T15:48:13.365Z,11.50
2023-02-06T15:50:41.040Z,11.40
2023-02-06T15:53:19.678Z,11.30
2023-02-06T15:55:56.873Z,11.30
2023-02-06T15:58:25.754Z,11.20
2023-02-06T16:00:55.776Z,11.10
2023-02-06T16:03:29.382Z,11.10
2023-02-06T16:05:58.029Z,11.00
2023-02-06T16:08:31.144Z,10.90
2023-02-06T16:11:03.927Z,10.80
2023-02-06T16:13:33.142Z,10.80
2023-02-06T16:16:01.979Z,10.70
2023-02-06T16:18:41.090Z,10.60
2023-02-06T16:21:15.007Z,10.50
2023-02-06T16:23:48.568Z,10.40
2023-02-06T16:26:19.241Z,10.40
2023-02-06T16:29:01.186Z,10.30
2023-02-06T16:31:31.576Z,10.20
2023-02-06T16:34:03.482Z,10.10
2023-02-06T16:36:32.969Z,10.00
2023-02-06T16:39:04.381Z,9.90
2023-02-06T16:41:35.509Z,9.80
2023-02-06T16:44:05.072Z,9.70
2023-02-06T16:46:32.454Z,9.60
2023-02-06T16:49:00.420Z,9.50
2023-02-06T16:51:30.137Z,9.40
2023-02-06T16:53:58.392Z,9.40
2023-02-06T16:56:25.863Z,9.30
2023-02-06T16:58:53.579Z,9.20
2023-02-06T17:01:25.290Z,9.10
2023-02-06T17:03:53.272Z,9.00
2023-02-06T17:06:23.863Z,9.00
2023-02-06T17:08:53.475Z,8.90
2023-02-06T17:11:20.769Z,8.80
2023-02-06T17:13:48.049Z,8.70
2023-02-06T17:16:21.258Z,8.70
2023-02-06T17:18:49.022Z,8.60
2023-02-06T17:21:18.580Z,8.50
2023-02-06T17:23:46.796Z,8.40
2023-02-06T17:26:20.470Z,8.40
2023-02-06T17:28:48.850Z,8.30
2023-02-06T17:31:16.409Z,8.30
2023-02-06T17:33:43.830Z,8.20
2023-02-06T17:36:22.656Z,8.10
2023-02-06T17:38:50.052Z,8.10
2023-02-06T17:41:17.492Z,8.00
2023-02-06T17:43:44.786Z,8.00
2023-02-06T17:46:13.260Z,7.90
2023-02-06T17:48:42.848Z,7.90
2023-02-06T17:51:10.989Z,7.80
2023-02-06T17:53:51.978Z,7.70
2023-02-06T17:56:20.562Z,7.70
2023-02-06T17:58:47.921Z,7.60
2023-02-06T18:01:18.496Z,7.60
2023-02-06T18:03:47.937Z,7.50
2023-02-06T18:06:15.570Z,7.50
2023-02-06T18:08:44.117Z,7.40
2023-02-06T18:11:18.465Z,7.30
2023-02-06T18:13:47.827Z,7.30
2023-02-06T18:16:21.548Z,7.20
2023-02-06T18:18:49.676Z,7.20
2023-02-06T18:21:19.621Z,7.10
2023-02-06T18:23:48.063Z,7.10
2023-02-06T18:26:16.127Z,7.00
2023-02-06T18:28:43.662Z,7.00
2023-02-06T18:31:22.493Z,7.00
2023-02-06T18:33:49.984Z,6.90
2023-02-06T18:36:18.004Z,6.90
2023-02-06T18:38:45.810Z,6.80
2023-02-06T18:41:33.668Z,6.80
2023-02-06T18:44:02.736Z,6.70
2023-02-06T18:46:30.405Z,6.70
2023-02-06T18:48:58.007Z,6.70
2023-02-06T18:51:25.686Z,6.70
2023-02-06T18:53:53.097Z,6.60
2023-02-06T18:56:27.593Z,6.60
2023-02-06T18:58:55.092Z,6.60
2023-02-06T19:01:24.664Z,6.50
2023-02-06T19:04:02.919Z,6.50
2023-02-06T19:06:35.726Z,6.50
2023-02-06T19:09:07.337Z,6.40
2023-02-06T19:11:36.327Z,6.40
2023-02-06T19:14:04.858Z,6.30
2023-02-06T19:16:32.914Z,6.30
2023-02-06T19:19:01.670Z,6.20
2023-02-06T19:21:29.013Z,6.20
2023-02-06T19:23:58.461Z,6.20
2023-02-06T19:26:26.905Z,6.10
2023-02-06T19:28:54.855Z,6.10
2023-02-06T19:31:25.386Z,6.00
2023-02-06T19:33:55.823Z,6.00
2023-02-06T19:36:25.121Z,5.90
2023-02-06T19:38:56.467Z,5.80
2023-02-06T19:41:25.515Z,5.80
2023-02-06T19:44:02.978Z,5.70
2023-02-06T19:46:31.333Z,5.70
2023-02-06T19:48:58.750Z,5.70
2023-02-06T19:51:28.920Z,5.60
2023-02-06T19:53:58.328Z,5.60
2023-02-06T19:56:39.367Z,5.60
2023-02-06T19:59:21.901Z,5.60
2023-02-06T20:01:54.549Z,5.50
2023-02-06T20:04:24.585Z,5.50
2023-02-06T20:07:00.523Z,5.50
2023-02-06T20:09:30.480Z,5.40
2023-02-06T20:12:02.805Z,5.40
2023-02-06T20:14:31.671Z,5.30
2023-02-06T20:17:03.357Z,5.30
2023-02-06T20:19:31.166Z,5.30
2023-02-06T20:22:00.805Z,5.20
2023-02-06T20:24:31.434Z,5.20
2023-02-06T20:27:02.492Z,5.20
2023-02-06T20:29:34.207Z,5.20
2023-02-06T20:32:03.147Z,5.20
2023-02-06T20:34:33.285Z,5.10
2023-02-06T20:37:00.584Z,5.10
2023-02-06T20:39:28.778Z,5.10
2023-02-06T20:41:56.691Z,5.00
2023-02-06T20:44:24.016Z,5.00
2023-02-06T20:46:51.524Z,5.00
2023-02-06T20:49:26.103Z,4.90
2023-02-06T20:51:54.906Z,4.90
2023-02-06T20:54:23.728Z,4.90
2023-02-06T20:56:53.978Z,4.90
2023-02-06T20:59:22.138Z,4.80
2023-02-06T21:01:49.402Z,4.80
2023-02-06T21:04:20.008Z,4.80
2023-02-06T21:06:48.701Z,4.80
2023-02-06T21:09:17.624Z,4.80
2023-02-06T21:11:59.357Z,4.70
2023-02-06T21:14:32.752Z,4.70
2023-02-06T21:17:04.001Z,4.70
2023-02-06T21:19:31.349Z,4.70
2023-02-06T21:21:58.972Z,4.70
2023-02-06T21:24:26.348Z,4.60
2023-02-06T21:26:54.319Z,4.60
2023-02-06T21:29:23.165Z,4.60
2023-02-06T21:31:55.763Z,4.60
2023-02-06T21:34:27.978Z,4.60
2023-02-06T21:36:55.271Z,4.60
2023-02-06T21:39:27.325Z,4.60
2023-02-06T21:41:55.243Z,4.60
2023-02-06T21:44:26.557Z,4.60
2023-02-06T21:46:56.259Z,4.60
2023-02-06T21:49:23.980Z,4.60
2023-02-06T21:51:51.777Z,4.60
2023-02-06T21:54:19.522Z,4.60
2023-02-06T21:56:46.814Z,4.60
2023-02-06T21:59:14.180Z,4.60
2023-02-06T22:01:41.596Z,4.60
2023-02-06T22:04:10.091Z,4.60
2023-02-06T22:06:38.084Z,4.60
2023-02-06T22:09:07.907Z,4.60
2023-02-06T22:11:39.689Z,4.60
2023-02-06T22:14:11.223Z,4.60
2023-02-06T22:16:38.784Z,4.60
2023-02-06T22:19:18.368Z,4.60
2023-02-06T22:21:46.026Z,4.60
2023-02-06T22:24:13.471Z,4.60
2023-02-06T22:26:47.710Z,4.60
2023-02-06T22:29:17.471Z,4.60
2023-02-06T22:31:45.367Z,4.50
2023-02-06T22:34:20.075Z,4.50
2023-02-06T22:36:49.175Z,4.50
2023-02-06T22:39:17.071Z,4.50
2023-02-06T22:41:46.216Z,4.50
2023-02-06T22:44:18.762Z,4.50
2023-02-06T22:46:51.735Z,4.60
2023-02-06T22:49:20.701Z,4.50
2023-02-06T22:51:50.673Z,4.50
2023-02-06T22:54:18.338Z,4.50
2023-02-06T22:56:45.816Z,4.50
2023-02-06T22:59:21.941Z,4.50
2023-02-06T23:01:54.255Z,4.50
2023-02-06T23:04:23.935Z,4.50
2023-02-06T23:06:51.630Z,4.40
2023-02-06T23:09:24.425Z,4.40
2023-02-06T23:11:52.698Z,4.40
2023-02-06T23:14:20.602Z,4.40
2023-02-06T23:16:48.707Z,4.30
2023-02-06T23:19:20.290Z,4.40
2023-02-06T23:21:49.496Z,4.30
2023-02-06T23:24:17.307Z,4.30
2023-02-06T23:26:47.150Z,4.30
2023-02-06T23:29:18.012Z,4.30
2023-02-06T23:31:47.036Z,4.30
2023-02-06T23:34:20.383Z,4.20
2023-02-06T23:36:48.007Z,4.20
2023-02-06T23:39:15.595Z,4.10
2023-02-06T23:41:42.920Z,4.10
2023-02-06T23:44:11.337Z,4.10
2023-02-06T23:46:44.783Z,4.10
2023-02-06T23:49:13.640Z,4.10
2023-02-06T23:51:40.971Z,4.00
2023-02-06T23:54:08.918Z,4.00
2023-02-06T23:56:36.601Z,3.90
2023-02-06T23:59:05.471Z,3.90
